Main page
METAR-TAF:

METAR-TAF

Airports :

London Southend Airport

London-Southend, England

latitude: 51-34N, longitude: 000-42E, elevation: 15 m

Current weather observation

The report was made 10 minutes ago, at 18:50 UTC
Wind 11 kt from the West/Southwest
Temperature 8°C
Humidity 87%
Pressure 1022 hPa
Visibility 10 km or more
no clouds below 1500 m and no cumulonimbus

METAR: EGMC 291850Z 25011KT CAVOK 08/06 Q1022

Time: 19:00 (19:00 UTC)

Forecast

The report was made 2 hours and 2 minutes ago, at 16:58 UTC
Forecast valid from 29 at 18 UTC to 30 at 03 UTC
Wind 9 kt from the West/Southwest
Visibility 10 km or more
Few clouds at a height of 2000 ft
Probability 30% :
Temporary
from 30 at 00 UTC to 30 at 03 UTC
Broken clouds at a height of 1200 ft

TAF: EGMC 291658Z 2918/3003 25009KT 9999 FEW020 PROB30 TEMPO 3000/3003 BKN012

Weather observations and forecasts of more than 4000 airports (METAR and TAF reports).

The available stations are represented by yellow and red dots on the map.

Hover mouse over dot to see the name of the station.

Then click to see weather observations and forecasts.

To change the map : click on the green buttons with a black cross to zoom in, on the green button with a dash to zoom out, or on the green arrows for adjacent maps.


METAR-TAF: